Evansville, IN

10:26 PM CDT on September 01, 2014 (GMT -0500)
Pigeon Township | Change Station
CLOSE
Current Station
Personal Weather Station
Location: Evansville, IN
Elevation: 390 ft
Nearby Weather Stations

Elev 390 ft 37.99 °N, 87.56 °W | Updated 3 seconds ago

Mostly Cloudy
Mostly Cloudy
79.0 °F
Feels Like 82 °F
N
0.0
Wind Variable Wind from South
Gusts 5.0 mph

Today
High -- | Low -- °F
--% Chance of Precip.
Yesterday
High -- | Low -- °F
Precip. -- in
6:20 AM 7:19 PM
Waxing Crescent, 47% visible
Pressure 29.95 in
Visibility 10.0 miles
Clouds Mostly Cloudy 10000 ft
Heat Index 82 °F
Dew Point 73 °F
Humidity 83%
Rainfall 0.00 in
Snow Depth Not available.
UV 0 out of 12
Pollen 11.00 out of 12
Ozone Good
PM2.5 Good
Flu Activity Not available.
METAR KEVV 020254Z 18003KT 10SM BKN100 26/23 A2996 RMK AO2 SLP141 T02560228 52004

More Conditions Fewer Conditions

Pressure 29.95 in
Visibility 10.0 miles
Clouds Mostly Cloudy 10000 ft
Heat Index 82 °F
Dew Point 73 °F
Humidity 83%
Rainfall 0.00 in
Snow Depth Not available.
UV 0 out of 12
Pollen 11.00 out of 12
Ozone Good
PM2.5 Good
Flu Activity Not available.
METAR KEVV 020254Z 18003KT 10SM BKN100 26/23 A2996 RMK AO2 SLP141 T02560228 52004

More Conditions Fewer Conditions

10-Day Weather Forecast

Almanac

Astronomy

Sep. 01, 2014 Rise Set
Actual Time 6:20 AM CDT 7:19 PM CDT
Civil Twilight 5:53 AM CDT 7:46 PM CDT
Nautical Twilight 5:21 AM CDT 8:18 PM CDT
Astronomical Twilight 4:47 AM CDT 8:51 PM CDT
Moon 12:58 PM CDT (9/1) 11:27 PM CDT (9/1)
Length of Visible Light 13h 53m
Length of Day
12h 59m
Tomorrow will be 2m 21s shorter.
Waxing Crescent, 47% of the Moon is Illuminated
Today
Waxing Crescent
Sep 2
First Quarter
Sep 8
Full
Sep 15
Last Quarter
Sep 24
New

Today's Extremes

State Highs State Lows

Community

WunderPhotos

Upload Photos

1,749,546 photos uploaded!

WunderBlogs® & News

Nearby

Air Quality

  Air Quality AQ Index Pollutant
Yesterday Good
OZONE
Yesterday Good
PM2.5
Current Good
PM2.5
Current Good
OZONE
Monday Moderate
PM2.5
Monday Good
OZONE
Tuesday Moderate
PM2.5
Tuesday Good
OZONE

Snow Depth

Station Depth Elevation
No new snow has been reported.

Earthquake Activity

City Distance Mag. Time & Date
Tiptonville, Tennessee 153 miles 2.9 11:19 PM CDT
2014-08-31
Minimum magnitude displayed is 2.5.

Coastal Water Temperatures

Place Temperature
No Stations Reporting

Nearby Weather Stations